Time;durP1;ratioP1;P1;durP2;ratioP2;P2;SDS_P1;SDS_P2;PMS_P1;PMS_P2;Temp;Humidity;BMP_temperature;BMP_pressure;BME280_temperature;BME280_humidity;BME280_pressure;Samples;Min_cycle;Max_cycle;Signal;HPM_P1;HPM_P2
2022/04/01 00:01:41;;;;;;;;;;;;;;;16.94;58.22;97131.94;4491563;31;34678;-65
2022/04/01 00:04:12;;;;;;;;;;;;;;;16.95;58.17;97126.34;4489006;31;32964;-62
2022/04/01 00:06:42;;;;;;;;;;;;;;;16.91;58.44;97126.97;4497007;31;35068;-63
2022/04/01 00:09:11;;;;;;;;;;;;;;;17.05;57.86;97130.44;4492928;31;34080;-65
2022/04/01 00:11:41;;;;;;;;;;;;;;;17.02;58.07;97126.28;4484473;31;33503;-63
2022/04/01 00:14:10;;;;;;;;;;;;;;;16.95;58.27;97129.06;4489656;31;34734;-63
2022/04/01 00:16:39;;;;;;;;;;;;;;;16.89;58.45;97135.31;4474443;31;33469;-62
2022/04/01 00:19:08;;;;;;;;;;;;;;;17.08;57.82;97135.37;4481486;31;35524;-63
2022/04/01 00:21:37;;;;;;;;;;;;;;;17.03;57.97;97135.22;4487012;31;33142;-64
2022/04/01 00:24:07;;;;;;;;;;;;;;;16.94;58.18;97123.84;4492092;31;35201;-63
2022/04/01 00:26:36;;;;;;;;;;;;;;;16.92;58.34;97128.66;4491214;31;35954;-64
2022/04/01 00:29:14;;;;;;;;;;;;;;;16.56;59.61;97129.25;4481900;31;35338;-63
2022/04/01 00:31:58;;;;;;;;;;;;;;;16.92;58.26;97118.69;4483956;31;33508;-63
2022/04/01 00:34:37;;;;;;;;;;;;;;;16.68;59.04;97119.41;4487408;31;32857;-62
2022/04/01 00:37:05;;;;;;;;;;;;;;;16.94;58.36;97118.44;4482755;31;34117;-63
2022/04/01 00:39:34;;;;;;;;;;;;;;;16.88;58.69;97124.72;4497840;31;34361;-63
2022/04/01 00:42:02;;;;;;;;;;;;;;;16.65;59.48;97117.97;4484083;31;33762;-62
2022/04/01 00:44:32;;;;;;;;;;;;;;;16.70;59.27;97115.47;4485130;31;35390;-63
2022/04/01 00:47:05;;;;;;;;;;;;;;;16.75;58.98;97115.66;4481299;31;35539;-63
2022/04/01 00:49:34;;;;;;;;;;;;;;;16.68;59.28;97103.22;4495626;31;34847;-64
2022/04/01 00:52:03;;;;;;;;;;;;;;;16.63;59.33;97101.19;4493442;31;33426;-62
2022/04/01 00:54:32;;;;;;;;;;;;;;;16.73;59.14;97108.81;4485406;31;33202;-64
2022/04/01 00:57:03;;;;;;;;;;;;;;;16.68;59.56;97109.44;4490443;31;33415;-64
2022/04/01 00:59:32;;;;;;;;;;;;;;;16.79;59.07;97104.41;4483426;31;34425;-65
2022/04/01 01:02:01;;;;;;;;;;;;;;;16.71;59.48;97102.78;4493500;31;32582;-63
2022/04/01 01:04:29;;;;;;;;;;;;;;;16.42;59.88;97098.81;4490066;31;33978;-62
2022/04/01 01:06:59;;;;;;;;;;;;;;;16.57;59.30;97104.75;4486516;31;33100;-63
2022/04/01 01:09:27;;;;;;;;;;;;;;;16.39;60.40;97110.03;4483306;31;33415;-64
2022/04/01 01:11:56;;;;;;;;;;;;;;;16.71;59.55;97124.38;4492500;31;33643;-62
2022/04/01 01:14:28;;;;;;;;;;;;;;;16.61;59.88;97118.66;4494351;31;33969;-63
2022/04/01 01:16:58;;;;;;;;;;;;;;;16.81;59.08;97122.06;4491233;31;35272;-64
2022/04/01 01:19:26;;;;;;;;;;;;;;;16.63;59.75;97120.09;4498969;31;34188;-64
2022/04/01 01:22:06;;;;;;;;;;;;;;;16.72;59.40;97109.84;4492755;31;32620;-64
2022/04/01 01:24:35;;;;;;;;;;;;;;;16.36;60.65;97113.16;4497178;31;35290;-63
2022/04/01 01:27:07;;;;;;;;;;;;;;;16.29;60.89;97115.91;4483675;31;33942;-64
2022/04/01 01:29:39;;;;;;;;;;;;;;;15.72;62.79;97118.38;4484234;31;35397;-64
2022/04/01 01:32:12;;;;;;;;;;;;;;;16.39;60.59;97110.84;4487506;31;32385;-66
2022/04/01 01:34:41;;;;;;;;;;;;;;;16.50;60.27;97106.63;4499228;31;33957;-62
2022/04/01 01:37:12;;;;;;;;;;;;;;;15.86;62.13;97112.94;4484462;31;33254;-64
2022/04/01 01:39:41;;;;;;;;;;;;;;;16.51;60.28;97101.03;4484609;31;34247;-65
2022/04/01 01:42:10;;;;;;;;;;;;;;;16.73;59.34;97106.09;4490387;31;32335;-62
2022/04/01 01:44:38;;;;;;;;;;;;;;;16.48;60.41;97106.88;4486373;31;34157;-65
2022/04/01 01:47:07;;;;;;;;;;;;;;;16.62;59.91;97099.50;4484735;31;34531;-64
2022/04/01 01:49:35;;;;;;;;;;;;;;;16.69;59.85;97111.13;4499342;31;34477;-62
2022/04/01 01:54:52;;;;;;;;;;;;;;;16.78;59.59;97106.28;4487584;31;34117;-64
2022/04/01 01:57:22;;;;;;;;;;;;;;;16.90;59.01;97111.84;4490340;31;34280;-65
2022/04/01 01:59:51;;;;;;;;;;;;;;;16.90;59.11;97106.44;4495219;31;35163;-63
2022/04/01 02:02:20;;;;;;;;;;;;;;;16.66;59.76;97102.59;4486946;31;33376;-65
2022/04/01 02:04:49;;;;;;;;;;;;;;;16.75;59.55;97102.16;4491845;31;34171;-63
2022/04/01 02:07:18;;;;;;;;;;;;;;;16.70;59.69;97098.44;4491145;31;33869;-64
2022/04/01 02:09:47;;;;;;;;;;;;;;;16.77;59.52;97107.34;4495017;31;34649;-63
2022/04/01 02:12:16;;;;;;;;;;;;;;;16.89;59.11;97102.91;4487442;31;33396;-64
2022/04/01 02:14:45;;;;;;;;;;;;;;;16.86;59.03;97108.75;4495230;31;33017;-63
2022/04/01 02:17:14;;;;;;;;;;;;;;;16.89;59.11;97100.19;4496122;31;33104;-63
2022/04/01 02:19:44;;;;;;;;;;;;;;;16.76;59.52;97098.41;4497378;31;35305;-63
2022/04/01 02:22:12;;;;;;;;;;;;;;;16.92;58.99;97099.75;4482687;31;34009;-64
2022/04/01 02:24:42;;;;;;;;;;;;;;;16.98;58.61;97095.34;4482871;31;33122;-66
2022/04/01 02:27:11;;;;;;;;;;;;;;;16.99;58.56;97102.41;4477418;32;35278;-64
2022/04/01 02:29:41;;;;;;;;;;;;;;;16.85;59.22;97100.84;4486420;31;34233;-65
2022/04/01 02:32:13;;;;;;;;;;;;;;;16.82;59.27;97085.06;4498435;31;33337;-62
2022/04/01 02:34:48;;;;;;;;;;;;;;;16.80;59.34;97077.19;4489943;31;33948;-63
2022/04/01 02:37:21;;;;;;;;;;;;;;;16.63;59.75;97067.94;4481902;31;33400;-64
2022/04/01 02:39:50;;;;;;;;;;;;;;;16.73;59.48;97065.59;4483215;31;34375;-64
2022/04/01 02:42:25;;;;;;;;;;;;;;;16.47;60.19;97059.31;4481759;31;32284;-63
2022/04/01 02:44:55;;;;;;;;;;;;;;;16.65;59.59;97060.44;4487941;31;33223;-63
2022/04/01 02:47:25;;;;;;;;;;;;;;;16.93;58.55;97070.88;4486303;31;33412;-65
2022/04/01 02:49:55;;;;;;;;;;;;;;;17.02;57.94;97074.13;4485030;31;34566;-63
2022/04/01 02:52:25;;;;;;;;;;;;;;;17.00;58.10;97071.63;4495965;31;34580;-63
2022/04/01 02:54:57;;;;;;;;;;;;;;;16.91;58.68;97073.78;4494035;31;34320;-62
2022/04/01 02:57:25;;;;;;;;;;;;;;;16.72;59.38;97075.53;4482000;31;33838;-65
2022/04/01 02:59:53;;;;;;;;;;;;;;;16.79;59.29;97072.00;4484875;31;33901;-65
2022/04/01 03:02:22;;;;;;;;;;;;;;;16.77;59.07;97067.66;4492309;31;32240;-65
2022/04/01 03:04:50;;;;;;;;;;;;;;;16.81;59.04;97061.81;4483101;31;32969;-63
2022/04/01 03:07:18;;;;;;;;;;;;;;;16.73;59.31;97060.19;4492268;31;37202;-64
2022/04/01 03:09:47;;;;;;;;;;;;;;;16.57;59.94;97055.31;4482024;31;34999;-64
2022/04/01 03:12:16;;;;;;;;;;;;;;;16.77;59.21;97056.84;4497758;31;33476;-63
2022/04/01 03:14:45;;;;;;;;;;;;;;;16.82;58.97;97067.00;4497246;31;34007;-64
2022/04/01 03:17:17;;;;;;;;;;;;;;;16.72;59.52;97067.44;4492001;31;33707;-63
2022/04/01 03:19:45;;;;;;;;;;;;;;;16.93;58.53;97082.50;4488032;31;34605;-63
2022/04/01 03:22:14;;;;;;;;;;;;;;;16.68;59.42;97089.72;4494814;31;32299;-64
2022/04/01 03:24:44;;;;;;;;;;;;;;;16.39;60.21;97083.88;4492444;31;32905;-64
2022/04/01 03:27:13;;;;;;;;;;;;;;;16.70;59.38;97068.72;4485723;31;34105;-65
2022/04/01 03:29:41;;;;;;;;;;;;;;;16.48;59.99;97055.56;4491844;31;34487;-63
2022/04/01 03:32:11;;;;;;;;;;;;;;;16.13;61.15;97038.13;4496511;31;34309;-63
2022/04/01 03:34:41;;;;;;;;;;;;;;;16.34;60.63;97051.31;4494815;31;34279;-63
2022/04/01 03:37:10;;;;;;;;;;;;;;;16.54;60.16;97061.97;4489927;31;34957;-63
2022/04/01 03:39:38;;;;;;;;;;;;;;;16.55;60.30;97066.31;4491639;31;35790;-61
2022/04/01 03:42:12;;;;;;;;;;;;;;;16.49;60.62;97076.13;4493199;31;32084;-64
2022/04/01 03:44:41;;;;;;;;;;;;;;;16.51;60.35;97071.34;4481694;31;33003;-64
2022/04/01 03:47:11;;;;;;;;;;;;;;;16.50;60.39;97080.50;4488061;31;34465;-64
2022/04/01 03:49:48;;;;;;;;;;;;;;;16.64;60.01;97073.13;4482302;32;34581;-63
2022/04/01 03:52:21;;;;;;;;;;;;;;;16.46;60.48;97065.75;4467219;32;34236;-63
2022/04/01 03:54:49;;;;;;;;;;;;;;;16.36;60.86;97069.97;4482080;31;33206;-63
2022/04/01 03:57:25;;;;;;;;;;;;;;;16.58;60.16;97070.47;4482187;31;33961;-65
2022/04/01 04:00:00;;;;;;;;;;;;;;;16.69;59.62;97073.31;4473560;31;34428;-63
2022/04/01 04:02:30;;;;;;;;;;;;;;;16.81;59.12;97073.44;4485580;31;33537;-65
2022/04/01 04:04:59;;;;;;;;;;;;;;;16.69;59.32;97069.75;4477243;31;34309;-62
2022/04/01 04:07:30;;;;;;;;;;;;;;;16.91;58.48;97067.56;4484525;31;34294;-66
2022/04/01 04:09:58;;;;;;;;;;;;;;;16.06;60.78;97070.56;4482562;31;34626;-65
2022/04/01 04:12:27;;;;;;;;;;;;;;;16.41;60.26;97078.25;4482746;31;33354;-67
2022/04/01 04:14:57;;;;;;;;;;;;;;;16.65;58.83;97061.25;4467201;31;34157;-67
2022/04/01 04:17:32;;;;;;;;;;;;;;;16.61;59.24;97043.84;4484956;31;34792;-67
2022/04/01 04:20:07;;;;;;;;;;;;;;;16.60;59.52;97038.69;4481363;31;34376;-66
2022/04/01 04:22:51;;;;;;;;;;;;;;;16.42;60.02;97034.03;4489866;31;33635;-68
2022/04/01 04:25:21;;;;;;;;;;;;;;;16.66;59.44;97033.25;4478093;31;33995;-66
2022/04/01 04:28:00;;;;;;;;;;;;;;;16.67;59.20;97042.16;4484108;31;34122;-67
2022/04/01 04:30:33;;;;;;;;;;;;;;;16.70;59.20;97039.03;4481356;31;34186;-65
2022/04/01 04:33:06;;;;;;;;;;;;;;;16.66;59.25;97033.25;4483781;31;33764;-65
2022/04/01 04:35:38;;;;;;;;;;;;;;;16.81;58.78;97035.63;4490917;31;33420;-66
2022/04/01 04:38:08;;;;;;;;;;;;;;;16.96;58.27;97040.72;4483545;31;34122;-65
2022/04/01 04:40:36;;;;;;;;;;;;;;;17.02;58.14;97052.50;4481336;31;34157;-65
2022/04/01 04:43:12;;;;;;;;;;;;;;;16.85;58.57;97054.91;4494068;31;32398;-65
2022/04/01 04:45:41;;;;;;;;;;;;;;;16.92;58.37;97048.44;4493269;31;34052;-64
2022/04/01 04:48:10;;;;;;;;;;;;;;;16.81;58.66;97054.53;4481073;31;34887;-65
2022/04/01 04:50:43;;;;;;;;;;;;;;;17.01;57.91;97062.47;4485962;31;33484;-66
2022/04/01 04:53:11;;;;;;;;;;;;;;;17.17;57.39;97067.34;4468526;32;33365;-66
2022/04/01 04:55:40;;;;;;;;;;;;;;;17.16;57.41;97065.66;4481359;31;34987;-65
2022/04/01 04:58:09;;;;;;;;;;;;;;;17.14;57.52;97069.63;4488416;31;34227;-66
2022/04/01 05:00:40;;;;;;;;;;;;;;;16.95;57.98;97063.34;4486435;31;34738;-66
2022/04/01 05:03:12;;;;;;;;;;;;;;;16.92;58.10;97059.25;4469498;32;32411;-66
2022/04/01 05:05:42;;;;;;;;;;;;;;;17.10;57.52;97060.31;4486481;31;34234;-65
2022/04/01 05:08:17;;;;;;;;;;;;;;;16.86;58.14;97067.41;4482020;31;34143;-65
2022/04/01 05:11:08;;;;;;;;;;;;;;;16.96;57.56;97071.25;4467692;32;34443;-65
2022/04/01 05:13:55;;;;;;;;;;;;;;;16.69;58.06;97076.00;4480335;31;34477;-65
2022/04/01 05:16:35;;;;;;;;;;;;;;;16.61;58.06;97078.12;4485128;31;32984;-67
2022/04/01 05:19:04;;;;;;;;;;;;;;;16.56;58.13;97076.06;4465910;32;34158;-66
2022/04/01 05:21:38;;;;;;;;;;;;;;;16.49;58.18;97076.13;4486524;31;34380;-66
2022/04/01 05:24:07;;;;;;;;;;;;;;;16.48;58.20;97073.66;4492817;31;34407;-67
2022/04/01 05:26:42;;;;;;;;;;;;;;;16.43;58.44;97084.25;4483601;31;35844;-65
2022/04/01 05:29:13;;;;;;;;;;;;;;;16.22;58.43;97085.41;4485601;31;35148;-69
2022/04/01 05:31:46;;;;;;;;;;;;;;;16.47;58.09;97077.41;4483273;31;34225;-66
2022/04/01 05:34:18;;;;;;;;;;;;;;;16.35;58.51;97082.66;4484349;31;33685;-65
2022/04/01 05:36:49;;;;;;;;;;;;;;;16.29;58.83;97078.94;4485903;31;33938;-62
2022/04/01 05:39:17;;;;;;;;;;;;;;;16.34;58.67;97072.91;4481292;31;33628;-63
2022/04/01 05:41:46;;;;;;;;;;;;;;;16.51;58.05;97068.63;4485778;31;34597;-62
2022/04/01 05:44:15;;;;;;;;;;;;;;;16.55;57.80;97079.81;4487561;31;36204;-72
2022/04/01 05:46:44;;;;;;;;;;;;;;;16.46;57.73;97073.03;4476286;31;34032;-76
2022/04/01 05:49:12;;;;;;;;;;;;;;;16.45;57.84;97072.19;4471129;32;33097;-77
2022/04/01 05:51:41;;;;;;;;;;;;;;;16.45;57.54;97071.38;4468769;32;33143;-75
2022/04/01 05:54:09;;;;;;;;;;;;;;;16.35;57.83;97082.66;4459255;32;32509;-75
2022/04/01 05:56:38;;;;;;;;;;;;;;;16.37;57.38;97077.03;4452873;32;34270;-65
2022/04/01 05:59:06;;;;;;;;;;;;;;;16.27;57.36;97091.00;4457045;32;34206;-63
2022/04/01 06:01:45;;;;;;;;;;;;;;;16.01;57.48;97097.34;4459441;32;34604;-65
2022/04/01 06:04:39;;;;;;;;;;;;;;;15.80;57.81;97085.78;4463511;32;35400;-64
2022/04/01 06:07:10;;;;;;;;;;;;;;;15.87;57.78;97085.78;4464812;32;34066;-64
2022/04/01 06:09:42;;;;;;;;;;;;;;;15.73;58.00;97081.44;4466659;32;33926;-64
2022/04/01 06:12:19;;;;;;;;;;;;;;;15.81;57.82;97075.84;4459391;32;34215;-69
2022/04/01 06:14:52;;;;;;;;;;;;;;;15.80;57.51;97069.63;4465826;32;33887;-66
2022/04/01 06:17:32;;;;;;;;;;;;;;;15.63;57.89;97071.06;4458846;32;35149;-67
2022/04/01 06:20:03;;;;;;;;;;;;;;;16.00;57.27;97080.31;4458247;32;33952;-68
2022/04/01 06:22:33;;;;;;;;;;;;;;;15.96;57.25;97075.59;4463137;32;36993;-66
2022/04/01 06:25:17;;;;;;;;;;;;;;;16.03;56.75;97073.69;4463001;32;34297;-66
2022/04/01 06:27:47;;;;;;;;;;;;;;;15.96;57.13;97067.50;4461842;32;35191;-68
2022/04/01 06:30:17;;;;;;;;;;;;;;;15.98;56.95;97077.00;4463383;32;34413;-65
2022/04/01 06:33:06;;;;;;;;;;;;;;;16.06;56.45;97081.34;4458631;32;33202;-69
2022/04/01 06:35:40;;;;;;;;;;;;;;;16.12;55.80;97085.06;4460051;32;31967;-71
2022/04/01 06:38:09;;;;;;;;;;;;;;;16.01;55.89;97081.16;4460004;32;35425;-67
2022/04/01 06:40:42;;;;;;;;;;;;;;;15.86;56.55;97091.38;4466827;32;33806;-65
2022/04/01 06:43:10;;;;;;;;;;;;;;;15.89;56.25;97090.94;4463550;32;34439;-64
2022/04/01 06:45:42;;;;;;;;;;;;;;;15.86;56.52;97092.22;4458720;32;34346;-64
2022/04/01 06:48:15;;;;;;;;;;;;;;;15.99;56.18;97084.06;4454364;32;35362;-65
2022/04/01 06:50:52;;;;;;;;;;;;;;;15.84;56.55;97086.19;4451577;32;35400;-65
2022/04/01 06:53:25;;;;;;;;;;;;;;;15.89;56.63;97091.78;4468288;31;33869;-65
2022/04/01 06:55:55;;;;;;;;;;;;;;;15.91;56.87;97089.69;4483885;31;33696;-65
2022/04/01 06:58:29;;;;;;;;;;;;;;;15.96;56.76;97084.50;4489786;31;33867;-65
2022/04/01 07:00:58;;;;;;;;;;;;;;;15.73;57.31;97085.00;4470055;32;33176;-64
2022/04/01 07:03:33;;;;;;;;;;;;;;;15.33;58.34;97087.72;4484696;31;35659;-64
2022/04/01 07:06:06;;;;;;;;;;;;;;;15.58;58.50;97092.47;4486272;31;34451;-65
2022/04/01 07:08:34;;;;;;;;;;;;;;;15.79;58.18;97077.91;4481421;31;33823;-64
2022/04/01 07:11:03;;;;;;;;;;;;;;;15.63;58.54;97092.66;4472223;31;34083;-65
2022/04/01 07:13:32;;;;;;;;;;;;;;;15.87;57.88;97090.34;4482789;31;33956;-65
2022/04/01 07:16:01;;;;;;;;;;;;;;;15.84;57.71;97096.97;4485741;31;34643;-65
2022/04/01 07:18:29;;;;;;;;;;;;;;;15.45;57.15;97097.87;4484587;31;35008;-65
2022/04/01 07:20:58;;;;;;;;;;;;;;;14.81;58.42;97102.06;4485517;31;34041;-66
2022/04/01 07:23:26;;;;;;;;;;;;;;;15.15;57.66;97109.09;4492390;31;34204;-66
2022/04/01 07:25:55;;;;;;;;;;;;;;;15.20;56.99;97109.31;4493182;31;33219;-65
2022/04/01 07:28:23;;;;;;;;;;;;;;;15.34;55.88;97105.59;4483156;31;32543;-66
2022/04/01 07:30:52;;;;;;;;;;;;;;;15.12;55.78;97102.28;4483473;31;35341;-65
2022/04/01 07:33:21;;;;;;;;;;;;;;;14.83;56.57;97111.59;4485892;31;35109;-65
2022/04/01 07:35:55;;;;;;;;;;;;;;;14.97;56.27;97106.22;4490662;31;34299;-64
2022/04/01 07:38:35;;;;;;;;;;;;;;;14.68;57.32;97101.00;4485790;31;34502;-65
2022/04/01 07:41:03;;;;;;;;;;;;;;;14.67;57.31;97104.75;4482799;31;34150;-64
2022/04/01 07:43:32;;;;;;;;;;;;;;;14.57;57.59;97108.84;4485449;31;35467;-63
2022/04/01 07:46:00;;;;;;;;;;;;;;;14.25;57.62;97118.44;4488553;31;34951;-62
2022/04/01 07:48:29;;;;;;;;;;;;;;;14.30;57.78;97113.31;4493915;31;34309;-64
2022/04/01 07:50:58;;;;;;;;;;;;;;;13.93;58.57;97118.13;4489617;31;33700;-63
2022/04/01 07:53:26;;;;;;;;;;;;;;;13.37;60.12;97124.41;4487680;31;35396;-62
2022/04/01 07:55:55;;;;;;;;;;;;;;;13.52;59.11;97121.63;4487166;31;34362;-63
2022/04/01 07:58:23;;;;;;;;;;;;;;;13.46;59.46;97123.25;4492492;31;33984;-62
2022/04/01 08:00:53;;;;;;;;;;;;;;;13.68;58.90;97128.56;4494611;31;34990;-64
2022/04/01 08:03:22;;;;;;;;;;;;;;;13.60;59.42;97131.38;4484153;31;34003;-63
2022/04/01 08:05:50;;;;;;;;;;;;;;;13.46;59.82;97133.16;4484346;31;32219;-64
2022/04/01 08:08:19;;;;;;;;;;;;;;;13.79;58.52;97133.34;4485254;31;33572;-62
2022/04/01 08:10:48;;;;;;;;;;;;;;;13.80;58.48;97136.88;4489628;31;35509;-62
2022/04/01 08:13:15;;;;;;;;;;;;;;;13.48;59.36;97140.00;4486298;31;33642;-65
2022/04/01 08:15:45;;;;;;;;;;;;;;;13.25;60.30;97148.28;4492536;31;32364;-65
2022/04/01 08:18:19;;;;;;;;;;;;;;;13.67;58.85;97143.81;4483186;31;33906;-63
2022/04/01 08:20:48;;;;;;;;;;;;;;;13.38;60.01;97139.50;4483675;31;35235;-64
2022/04/01 08:23:19;;;;;;;;;;;;;;;13.59;59.86;97144.00;4485538;31;32739;-62
2022/04/01 08:25:55;;;;;;;;;;;;;;;13.88;59.15;97148.31;4481710;31;32269;-63
2022/04/01 08:28:24;;;;;;;;;;;;;;;13.10;61.14;97144.84;4482526;31;35222;-64
2022/04/01 08:30:52;;;;;;;;;;;;;;;13.55;59.99;97152.63;4485244;31;34309;-65
2022/04/01 08:33:26;;;;;;;;;;;;;;;13.36;60.52;97159.56;4480773;31;34739;-62
2022/04/01 08:35:55;;;;;;;;;;;;;;;13.45;60.00;97167.28;4484964;31;32448;-62
2022/04/01 08:38:23;;;;;;;;;;;;;;;13.54;59.52;97167.94;4480443;31;35239;-64
2022/04/01 08:40:52;;;;;;;;;;;;;;;13.28;60.32;97171.25;4484449;31;34533;-62
2022/04/01 08:43:31;;;;;;;;;;;;;;;13.31;60.17;97167.34;4484847;31;34234;-61
2022/04/01 08:46:00;;;;;;;;;;;;;;;13.43;59.07;97172.00;4488528;31;33940;-62
2022/04/01 08:48:29;;;;;;;;;;;;;;;13.21;60.25;97176.53;4489683;31;34850;-63
2022/04/01 08:50:57;;;;;;;;;;;;;;;13.30;59.23;97179.13;4494352;31;34257;-62
2022/04/01 08:53:26;;;;;;;;;;;;;;;13.49;58.08;97187.34;4489535;31;34303;-62
2022/04/01 08:55:55;;;;;;;;;;;;;;;13.32;58.37;97195.87;4494064;31;33250;-63
2022/04/01 08:58:24;;;;;;;;;;;;;;;12.66;61.04;97196.06;4496635;31;34942;-62
2022/04/01 09:00:52;;;;;;;;;;;;;;;12.91;60.04;97199.22;4485421;31;34954;-62
2022/04/01 09:03:21;;;;;;;;;;;;;;;12.87;60.19;97203.28;4476093;31;33156;-63
2022/04/01 09:05:54;;;;;;;;;;;;;;;12.61;61.30;97203.81;4487132;31;33409;-62
2022/04/01 09:08:33;;;;;;;;;;;;;;;13.04;59.17;97199.34;4483680;31;33680;-61
2022/04/01 09:11:10;;;;;;;;;;;;;;;13.13;60.05;97192.81;4482154;31;34134;-62
2022/04/01 09:13:45;;;;;;;;;;;;;;;12.97;60.18;97201.97;4493673;31;33102;-62
2022/04/01 09:16:25;;;;;;;;;;;;;;;13.25;59.70;97196.66;4484445;31;32345;-63
2022/04/01 09:19:02;;;;;;;;;;;;;;;13.54;58.50;97205.56;4499086;31;34974;-62
2022/04/01 09:21:42;;;;;;;;;;;;;;;13.24;59.34;97196.81;4490744;31;32940;-62
2022/04/01 09:24:17;;;;;;;;;;;;;;;13.05;59.68;97192.94;4494906;31;34951;-62
2022/04/01 09:26:53;;;;;;;;;;;;;;;12.08;63.32;97212.06;4500731;31;34266;-61
2022/04/01 09:29:25;;;;;;;;;;;;;;;12.56;61.14;97207.09;4496626;31;34407;-62
2022/04/01 09:31:54;;;;;;;;;;;;;;;12.81;60.91;97203.03;4489938;31;35000;-62
2022/04/01 09:34:30;;;;;;;;;;;;;;;12.88;60.49;97204.97;4485951;31;34062;-62
2022/04/01 09:37:04;;;;;;;;;;;;;;;13.32;59.13;97207.44;4488862;31;33652;-62
2022/04/01 09:39:35;;;;;;;;;;;;;;;13.18;59.02;97211.84;4484662;31;33802;-61
2022/04/01 09:42:11;;;;;;;;;;;;;;;12.39;60.52;97213.69;4497550;31;34223;-62
2022/04/01 09:44:47;;;;;;;;;;;;;;;12.47;61.30;97221.63;4488453;31;33404;-64
2022/04/01 09:47:23;;;;;;;;;;;;;;;13.04;59.05;97215.44;4491640;31;32662;-62
2022/04/01 09:49:57;;;;;;;;;;;;;;;12.81;59.81;97219.13;4489744;31;36633;-61
2022/04/01 09:52:40;;;;;;;;;;;;;;;12.76;60.07;97223.41;4474535;31;34234;-62
2022/04/01 09:55:18;;;;;;;;;;;;;;;13.17;58.71;97220.13;4485790;31;33570;-63
2022/04/01 09:57:58;;;;;;;;;;;;;;;12.95;59.36;97222.78;4481648;31;32378;-62
2022/04/01 10:00:35;;;;;;;;;;;;;;;12.84;59.19;97217.94;4473821;31;32847;-62
2022/04/01 10:03:16;;;;;;;;;;;;;;;12.54;60.20;97225.22;4485419;32;34085;-63
2022/04/01 10:05:58;;;;;;;;;;;;;;;12.36;60.99;97220.28;4492217;31;33154;-61
2022/04/01 10:08:35;;;;;;;;;;;;;;;12.39;60.69;97219.03;4490293;31;33169;-61
2022/04/01 10:11:18;;;;;;;;;;;;;;;12.02;61.50;97224.34;4472624;31;34224;-60
2022/04/01 10:13:56;;;;;;;;;;;;;;;12.19;61.30;97233.03;4467535;32;33575;-61
2022/04/01 10:16:41;;;;;;;;;;;;;;;12.12;62.05;97240.16;4486344;31;33225;-61
2022/04/01 10:19:24;;;;;;;;;;;;;;;12.41;60.64;97236.63;4487503;31;32668;-61
2022/04/01 10:21:57;;;;;;;;;;;;;;;11.88;62.13;97235.94;4485622;31;35326;-62
2022/04/01 10:24:51;;;;;;;;;;;;;;;12.00;61.76;97241.63;4486922;31;33020;-61
2022/04/01 10:27:46;;;;;;;;;;;;;;;12.05;61.71;97255.34;4484895;31;34531;-62
2022/04/01 10:30:19;;;;;;;;;;;;;;;11.47;62.89;97259.56;4491232;31;32792;-62
2022/04/01 10:32:47;;;;;;;;;;;;;;;11.22;64.84;97254.41;4488735;31;33123;-61
2022/04/01 10:35:37;;;;;;;;;;;;;;;11.84;62.37;97262.22;4489847;31;32931;-65
2022/04/01 10:38:19;;;;;;;;;;;;;;;11.35;63.61;97264.50;4485578;31;34623;-65
2022/04/01 10:41:09;;;;;;;;;;;;;;;11.73;61.93;97256.47;4492501;31;33321;-66
2022/04/01 10:43:48;;;;;;;;;;;;;;;11.58;62.51;97262.63;4490128;31;32813;-65
2022/04/01 10:46:25;;;;;;;;;;;;;;;11.55;62.69;97272.87;4485079;31;33078;-67
2022/04/01 10:52:12;;;;;;;;;;;;;;;11.29;64.26;97270.59;4495740;31;32241;-67
2022/04/01 10:54:43;;;;;;;;;;;;;;;10.58;66.80;97273.37;4491113;31;34242;-64
2022/04/01 10:57:35;;;;;;;;;;;;;;;11.49;64.45;97277.09;4489105;31;34385;-66
2022/04/01 11:00:12;;;;;;;;;;;;;;;11.94;63.51;97274.53;4474013;31;33108;-65
2022/04/01 11:02:45;;;;;;;;;;;;;;;11.76;63.78;97289.09;4485248;31;32430;-65
2022/04/01 11:05:32;;;;;;;;;;;;;;;11.63;64.87;97275.50;4488887;31;34938;-63
2022/04/01 11:08:13;;;;;;;;;;;;;;;11.33;65.17;97278.09;4489528;31;34309;-67
2022/04/01 11:11:02;;;;;;;;;;;;;;;11.81;63.52;97281.34;4481372;31;34525;-66
2022/04/01 11:13:32;;;;;;;;;;;;;;;12.06;62.48;97283.81;4486117;31;33834;-63
2022/04/01 11:16:21;;;;;;;;;;;;;;;12.19;62.46;97277.78;4485137;31;34960;-63
2022/04/01 11:19:10;;;;;;;;;;;;;;;12.13;62.33;97282.03;4482573;31;32696;-63
2022/04/01 11:21:41;;;;;;;;;;;;;;;11.83;62.85;97290.03;4483853;31;34607;-63
2022/04/01 11:24:21;;;;;;;;;;;;;;;11.91;62.44;97277.59;4476454;31;32786;-62
2022/04/01 11:26:50;;;;;;;;;;;;;;;12.32;61.58;97281.47;4482081;31;32825;-63
2022/04/01 11:29:25;;;;;;;;;;;;;;;12.89;59.95;97276.41;4484477;31;34427;-62
2022/04/01 11:32:09;;;;;;;;;;;;;;;12.95;59.77;97283.72;4488003;31;33188;-61
2022/04/01 11:34:55;;;;;;;;;;;;;;;12.76;60.30;97277.09;4485244;31;33443;-62
2022/04/01 11:37:25;;;;;;;;;;;;;;;12.24;61.42;97281.59;4483294;31;34292;-63
2022/04/01 11:39:53;;;;;;;;;;;;;;;12.69;60.11;97281.56;4484840;31;34377;-62
2022/04/01 11:42:21;;;;;;;;;;;;;;;12.17;61.49;97288.72;4485194;31;34609;-63
2022/04/01 11:44:54;;;;;;;;;;;;;;;12.68;60.20;97275.38;4489389;31;33376;-62
2022/04/01 11:47:32;;;;;;;;;;;;;;;12.50;60.52;97283.78;4484379;31;34263;-64
2022/04/01 11:50:09;;;;;;;;;;;;;;;11.68;63.14;97273.09;4482338;31;35463;-63
2022/04/01 11:52:43;;;;;;;;;;;;;;;12.30;61.52;97277.34;4486572;31;35135;-63
2022/04/01 11:55:16;;;;;;;;;;;;;;;12.63;61.04;97283.12;4486188;31;34682;-63
2022/04/01 11:57:48;;;;;;;;;;;;;;;12.79;60.68;97279.41;4483976;31;34346;-64
2022/04/01 12:00:17;;;;;;;;;;;;;;;13.31;58.52;97270.25;4481904;31;37506;-63
2022/04/01 12:02:51;;;;;;;;;;;;;;;13.19;58.66;97264.56;4486637;31;33574;-63
2022/04/01 12:05:20;;;;;;;;;;;;;;;12.84;59.31;97277.00;4481290;31;32580;-63
2022/04/01 12:10:53;;;;;;;;;;;;;;;13.56;57.25;97270.69;4481903;31;34145;-64
2022/04/01 12:13:27;;;;;;;;;;;;;;;13.07;58.39;97274.13;4483075;31;33535;-64
2022/04/01 12:16:00;;;;;;;;;;;;;;;13.97;55.93;97272.69;4482240;31;33448;-64
2022/04/01 12:18:30;;;;;;;;;;;;;;;13.86;56.51;97281.28;4484484;31;34349;-63
2022/04/01 12:21:00;;;;;;;;;;;;;;;14.13;55.13;97285.81;4487294;31;33119;-64
2022/04/01 12:23:35;;;;;;;;;;;;;;;13.46;56.88;97286.31;4486044;31;35456;-63
2022/04/01 12:26:03;;;;;;;;;;;;;;;14.02;55.45;97282.84;4485401;31;33667;-64
2022/04/01 12:28:42;;;;;;;;;;;;;;;13.93;55.05;97295.59;4472695;31;35188;-63
2022/04/01 12:31:23;;;;;;;;;;;;;;;13.84;55.64;97292.22;4481987;31;33930;-62
2022/04/01 12:33:54;;;;;;;;;;;;;;;13.74;55.56;97295.25;4482731;31;33686;-62
2022/04/01 12:36:29;;;;;;;;;;;;;;;13.15;57.66;97298.16;4475551;31;33762;-64
2022/04/01 12:39:05;;;;;;;;;;;;;;;13.42;56.59;97304.69;4486854;31;34537;-64
2022/04/01 12:41:35;;;;;;;;;;;;;;;13.68;56.11;97308.66;4487479;31;33018;-62
2022/04/01 12:44:12;;;;;;;;;;;;;;;13.16;56.74;97318.66;4482342;31;35423;-63
2022/04/01 12:46:46;;;;;;;;;;;;;;;12.98;58.06;97321.75;4489348;31;33287;-62
2022/04/01 12:49:16;;;;;;;;;;;;;;;12.83;56.95;97312.88;4488075;31;34273;-63
2022/04/01 12:52:01;;;;;;;;;;;;;;;13.64;55.30;97313.59;4487357;31;33758;-63
2022/04/01 12:54:38;;;;;;;;;;;;;;;13.81;55.95;97310.63;4490150;31;35268;-62
2022/04/01 12:57:10;;;;;;;;;;;;;;;13.83;54.85;97316.59;4485357;31;32274;-63
2022/04/01 12:59:41;;;;;;;;;;;;;;;13.91;55.23;97317.31;4487617;31;33146;-64
2022/04/01 13:02:14;;;;;;;;;;;;;;;13.72;54.78;97310.75;4479435;31;33458;-62
2022/04/01 13:04:48;;;;;;;;;;;;;;;12.86;57.17;97317.87;4484522;31;33959;-62
2022/04/01 13:07:22;;;;;;;;;;;;;;;12.60;57.53;97321.06;4486531;31;33348;-63
2022/04/01 13:09:55;;;;;;;;;;;;;;;13.03;56.48;97329.22;4489847;31;35348;-62
2022/04/01 13:12:24;;;;;;;;;;;;;;;13.06;55.97;97328.84;4489383;31;33796;-63
2022/04/01 13:15:02;;;;;;;;;;;;;;;13.43;54.58;97321.62;4495301;31;34187;-61
2022/04/01 13:17:54;;;;;;;;;;;;;;;13.09;55.04;97325.78;4488443;31;32769;-62
2022/04/01 13:20:23;;;;;;;;;;;;;;;12.93;55.67;97342.13;4475061;31;34146;-63
2022/04/01 13:22:52;;;;;;;;;;;;;;;12.86;56.11;97344.72;4486895;31;33403;-63
2022/04/01 13:25:22;;;;;;;;;;;;;;;12.82;56.23;97335.41;4483340;31;34928;-64